Time;durP1;ratioP1;P1;durP2;ratioP2;P2;SDS_P1;SDS_P2;PMS_P1;PMS_P2;Temp;Humidity;BMP_temperature;BMP_pressure;BME280_temperature;BME280_humidity;BME280_pressure;Samples;Min_cycle;Max_cycle;Signal;HPM_P1;HPM_P2
2022/03/19 02:47:23;;;;;;;;;;;;;;;5.36;69.00;103795.38;6220608;22;1699;-96
2022/03/19 02:49:53;;;;;;;;;;;;;;;5.36;68.91;103795.38;6186740;23;1243;-96
2022/03/19 02:52:22;;;;;;;;;;;;;;;5.33;68.93;103793.75;6211432;23;1219;-96
2022/03/19 02:57:35;;;;;;;;;;;;;;;5.32;68.99;103805.38;6209803;23;1948;-96
2022/03/19 03:00:13;;;;;;;;;;;;;;;5.30;68.77;103804.66;6210719;23;1303;-96
2022/03/19 03:02:45;;;;;;;;;;;;;;;5.29;68.63;103810.94;6211028;23;1321;-96
2022/03/19 03:05:18;;;;;;;;;;;;;;;5.29;68.78;103807.41;6211222;23;1260;-96
2022/03/19 03:07:51;;;;;;;;;;;;;;;5.27;68.78;103820.06;6212658;23;1273;-96
2022/03/19 03:15:46;;;;;;;;;;;;;;;5.23;68.94;103828.28;6209695;23;1382;-96
2022/03/19 03:18:13;;;;;;;;;;;;;;;5.21;68.75;103830.19;6210796;23;1915;-96
2022/03/19 04:41:50;;;;;;;;;;;;;;;4.85;68.27;103824.66;6229370;23;1027;-96
2022/03/19 04:56:00;;;;;;;;;;;;;;;4.78;68.15;103817.03;6216289;23;1623;-96
2022/03/19 05:20:47;;;;;;;;;;;;;;;4.67;68.17;103832.91;6241756;23;1235;-96
2022/03/19 05:26:04;;;;;;;;;;;;;;;4.65;67.97;103844.69;6208596;23;924;-96
2022/03/19 05:28:47;;;;;;;;;;;;;;;4.64;68.17;103845.63;6242078;23;858;-96
2022/03/19 05:31:18;;;;;;;;;;;;;;;4.61;68.11;103846.66;6240967;23;1281;-96
2022/03/19 05:39:34;;;;;;;;;;;;;;;4.59;68.07;103864.63;6242596;23;1259;-96
2022/03/19 05:42:08;;;;;;;;;;;;;;;4.59;67.97;103866.41;6234942;23;929;-96
2022/03/19 05:44:44;;;;;;;;;;;;;;;4.58;67.99;103875.38;6240570;23;1036;-96
2022/03/19 05:47:20;;;;;;;;;;;;;;;4.58;67.86;103859.38;6241488;23;1372;-96
2022/03/19 05:50:00;;;;;;;;;;;;;;;4.57;67.98;103853.19;6241051;23;854;-96
2022/03/19 05:52:31;;;;;;;;;;;;;;;4.57;67.83;103865.69;6240506;23;1237;-96
2022/03/19 05:55:03;;;;;;;;;;;;;;;4.54;67.74;103880.94;6241293;23;865;-96
2022/03/19 05:57:37;;;;;;;;;;;;;;;4.55;67.92;103889.78;6240697;23;1873;-96
2022/03/19 06:00:11;;;;;;;;;;;;;;;4.54;67.69;103893.44;6237436;23;1215;-96
2022/03/19 06:02:50;;;;;;;;;;;;;;;4.52;67.85;103877.50;6240054;23;1286;-96
2022/03/19 06:05:20;;;;;;;;;;;;;;;4.54;67.79;103872.91;6239468;23;1443;-96
2022/03/19 06:07:50;;;;;;;;;;;;;;;4.52;67.69;103869.47;6239917;23;1333;-96
2022/03/19 06:10:18;;;;;;;;;;;;;;;4.54;67.82;103870.25;6242876;23;1313;-96
2022/03/19 06:18:17;;;;;;;;;;;;;;;4.52;67.70;103877.50;6235050;23;1914;-96
2022/03/19 06:20:47;;;;;;;;;;;;;;;4.51;67.52;103881.13;6238632;23;1646;-96
2022/03/19 06:23:15;;;;;;;;;;;;;;;4.51;67.58;103886.47;6238281;23;1421;-96
2022/03/19 06:31:05;;;;;;;;;;;;;;;4.54;67.28;103901.44;6238182;23;1378;-96
2022/03/19 06:33:34;;;;;;;;;;;;;;;4.54;67.36;103893.44;6237810;23;1306;-96
2022/03/19 06:38:47;;;;;;;;;;;;;;;4.55;67.04;103901.31;6233137;23;1896;-96
2022/03/19 06:41:15;;;;;;;;;;;;;;;4.57;67.18;103895.91;6234414;23;1219;-96
2022/03/19 06:43:43;;;;;;;;;;;;;;;4.53;67.13;103897.91;6233819;23;1192;-96
2022/03/19 06:46:09;;;;;;;;;;;;;;;4.55;66.98;103903.13;6229819;23;1147;-96
2022/03/19 06:48:36;;;;;;;;;;;;;;;4.55;67.06;103908.47;6228779;23;1217;-96
2022/03/19 06:51:03;;;;;;;;;;;;;;;4.54;66.94;103918.31;6230733;23;1262;-96
2022/03/19 06:53:30;;;;;;;;;;;;;;;4.57;67.02;103924.41;6228023;23;1303;-96
2022/03/19 06:55:59;;;;;;;;;;;;;;;4.55;66.96;103917.34;6228218;23;1486;-96
2022/03/19 06:58:27;;;;;;;;;;;;;;;4.56;66.93;103926.22;6231825;22;1877;-96
2022/03/19 07:00:54;;;;;;;;;;;;;;;4.56;66.97;103923.56;6225947;23;1222;-96
2022/03/19 07:03:23;;;;;;;;;;;;;;;4.58;66.94;103936.78;6225118;23;1218;-96
2022/03/19 07:05:56;;;;;;;;;;;;;;;4.55;66.95;103928.00;6222680;23;1412;-96
2022/03/19 07:08:23;;;;;;;;;;;;;;;4.59;66.95;103922.47;6225402;23;1259;-96
2022/03/19 07:10:49;;;;;;;;;;;;;;;4.59;66.74;103915.34;6215767;23;1179;-96
2022/03/19 07:13:18;;;;;;;;;;;;;;;4.59;66.88;103925.16;6217461;23;1259;-96
2022/03/19 07:15:44;;;;;;;;;;;;;;;4.59;66.77;103935.81;6220096;23;1299;-96
2022/03/19 07:18:11;;;;;;;;;;;;;;;4.62;66.68;103925.84;6216013;23;1908;-96
2022/03/19 07:20:37;;;;;;;;;;;;;;;4.61;66.65;103933.94;6216898;23;1266;-96
2022/03/19 07:23:04;;;;;;;;;;;;;;;4.58;66.72;103931.44;6215204;23;1245;-96
2022/03/19 07:25:30;;;;;;;;;;;;;;;4.58;66.49;103921.63;6217289;23;1159;-96
2022/03/19 07:27:57;;;;;;;;;;;;;;;4.60;66.68;103926.88;6216857;23;1195;-96
2022/03/19 07:30:23;;;;;;;;;;;;;;;4.60;66.84;103929.56;6216455;23;1167;-96
2022/03/19 07:32:50;;;;;;;;;;;;;;;4.63;66.59;103929.34;6217140;23;1352;-96
2022/03/19 07:35:16;;;;;;;;;;;;;;;4.63;66.56;103929.34;6216638;23;1174;-96
2022/03/19 07:37:43;;;;;;;;;;;;;;;4.63;66.68;103922.19;6219588;23;1942;-96
2022/03/19 07:40:09;;;;;;;;;;;;;;;4.62;66.80;103925.84;6219204;23;1195;-96
2022/03/19 07:42:35;;;;;;;;;;;;;;;4.65;66.65;103917.63;6219141;23;1174;-96
2022/03/19 07:45:02;;;;;;;;;;;;;;;4.68;66.45;103916.56;6220853;23;1345;-96
2022/03/19 07:47:29;;;;;;;;;;;;;;;4.66;66.39;103916.66;6218383;23;1252;-96
2022/03/19 07:49:55;;;;;;;;;;;;;;;4.69;66.44;103905.78;6218778;23;1289;-96
2022/03/19 07:52:22;;;;;;;;;;;;;;;4.67;66.49;103907.69;6222065;23;1259;-96
2022/03/19 07:54:49;;;;;;;;;;;;;;;4.69;66.25;103908.44;6220761;23;1314;-96
2022/03/19 07:57:16;;;;;;;;;;;;;;;4.71;66.23;103905.69;6222760;23;1904;-96
2022/03/19 07:59:43;;;;;;;;;;;;;;;4.71;66.19;103911.03;6218673;23;1502;-96
2022/03/19 08:02:09;;;;;;;;;;;;;;;4.72;66.30;103910.91;6220162;23;1270;-96
2022/03/19 08:04:36;;;;;;;;;;;;;;;4.74;66.43;103910.84;6220292;23;1175;-96
2022/03/19 08:07:03;;;;;;;;;;;;;;;4.72;66.36;103910.06;6223129;23;1287;-96
2022/03/19 08:09:30;;;;;;;;;;;;;;;4.72;66.43;103916.25;6223433;23;1280;-96
2022/03/19 08:11:56;;;;;;;;;;;;;;;4.74;66.32;103917.03;6221221;23;1231;-96
2022/03/19 08:14:23;;;;;;;;;;;;;;;4.73;66.47;103909.94;6222118;23;1314;-96
2022/03/19 08:16:50;;;;;;;;;;;;;;;4.74;66.45;103913.50;6223693;23;1381;-96
2022/03/19 08:19:19;;;;;;;;;;;;;;;4.78;66.32;103898.97;6223768;23;1869;-96
2022/03/19 08:21:45;;;;;;;;;;;;;;;4.78;66.26;103907.84;6224544;23;1405;-96
2022/03/19 08:24:13;;;;;;;;;;;;;;;4.80;66.30;103913.09;6223291;23;1208;-96
2022/03/19 08:26:39;;;;;;;;;;;;;;;4.76;66.28;103899.09;6227363;23;1473;-96
2022/03/19 08:29:09;;;;;;;;;;;;;;;4.77;66.41;103882.09;6230302;23;1222;-96
2022/03/19 08:31:36;;;;;;;;;;;;;;;4.80;66.26;103885.53;6226505;23;1390;-96
2022/03/19 08:34:04;;;;;;;;;;;;;;;4.83;66.20;103891.53;6223148;23;1274;-96
2022/03/19 08:36:34;;;;;;;;;;;;;;;4.82;66.25;103884.47;6224003;23;1492;-96
2022/03/19 08:41:50;;;;;;;;;;;;;;;4.80;66.54;103881.06;6201407;23;1421;-96
2022/03/19 08:44:20;;;;;;;;;;;;;;;4.81;66.48;103877.41;6231949;23;1136;-96
2022/03/19 08:46:48;;;;;;;;;;;;;;;4.84;66.47;103871.03;6230786;23;1285;-96
2022/03/19 08:49:27;;;;;;;;;;;;;;;4.84;66.47;103866.53;6231717;23;885;-96
2022/03/19 08:51:55;;;;;;;;;;;;;;;4.83;66.50;103875.50;6229615;23;1436;-96
2022/03/19 08:54:23;;;;;;;;;;;;;;;4.86;66.39;103874.47;6225219;23;1246;-96
2022/03/19 08:56:56;;;;;;;;;;;;;;;4.86;66.40;103886.00;6227832;23;1387;-96
2022/03/19 08:59:24;;;;;;;;;;;;;;;4.89;66.45;103892.94;6228027;23;1882;-96
2022/03/19 09:02:01;;;;;;;;;;;;;;;4.89;66.63;103892.94;6229317;23;1299;-96
2022/03/19 09:04:29;;;;;;;;;;;;;;;4.89;66.49;103901.81;6205072;23;1401;-96
2022/03/19 09:07:02;;;;;;;;;;;;;;;4.88;66.58;103891.22;6230525;23;1425;-96
2022/03/19 09:09:39;;;;;;;;;;;;;;;4.88;66.65;103877.84;6236931;23;1294;-96
2022/03/19 09:12:14;;;;;;;;;;;;;;;4.90;66.71;103875.97;6236620;23;1632;-96
2022/03/19 09:14:52;;;;;;;;;;;;;;;4.91;66.57;103881.22;6237784;23;1714;-96
2022/03/19 09:20:24;;;;;;;;;;;;;;;4.93;66.71;103879.28;6240873;23;881;-96
2022/03/19 09:23:12;;;;;;;;;;;;;;;4.93;66.66;103873.09;6241597;23;1179;-96
2022/03/19 13:52:59;;;;;;;;;;;;;;;6.71;69.03;103853.47;6214328;23;1384;-96
2022/03/19 13:55:41;;;;;;;;;;;;;;;6.74;68.90;103853.22;6243210;23;820;-96
2022/03/19 13:58:13;;;;;;;;;;;;;;;6.78;68.95;103851.19;6216706;23;1885;-96
2022/03/19 14:00:47;;;;;;;;;;;;;;;6.82;69.00;103850.84;6208736;23;1405;-96
2022/03/19 14:03:15;;;;;;;;;;;;;;;6.85;69.47;103851.56;6211406;23;1262;-96
2022/03/19 14:05:42;;;;;;;;;;;;;;;6.86;69.21;103847.94;6209150;23;1297;-96
2022/03/19 14:08:10;;;;;;;;;;;;;;;6.86;69.25;103832.72;6198203;23;1338;-96
2022/03/19 14:10:39;;;;;;;;;;;;;;;6.89;69.32;103836.97;6218802;23;1298;-96
2022/03/19 14:13:06;;;;;;;;;;;;;;;6.90;69.38;103836.84;6236050;23;1408;-96
2022/03/19 14:15:32;;;;;;;;;;;;;;;6.94;69.83;103838.34;6234911;23;1170;-96
2022/03/19 14:18:00;;;;;;;;;;;;;;;6.96;69.42;103835.53;6235334;23;1941;-96
2022/03/19 14:20:28;;;;;;;;;;;;;;;6.96;69.81;103836.38;6234975;23;1203;-96
2022/03/19 14:22:55;;;;;;;;;;;;;;;6.99;69.66;103841.50;6231803;23;1386;-96
2022/03/19 14:31:23;;;;;;;;;;;;;;;7.03;70.17;103824.25;6125189;23;834;-96
2022/03/19 16:28:15;;;;;;;;;;;;;;;7.68;70.79;103809.38;6210700;23;996;-96
2022/03/19 16:39:17;;;;;;;;;;;;;;;7.73;70.75;103804.50;6176512;23;1878;-96
2022/03/19 16:41:55;;;;;;;;;;;;;;;7.73;70.82;103793.78;6204980;23;1016;-96
2022/03/19 16:47:10;;;;;;;;;;;;;;;7.77;70.93;103790.84;6198169;23;1384;-96
2022/03/19 16:49:58;;;;;;;;;;;;;;;7.78;71.07;103792.53;6210791;23;1570;-96
2022/03/19 16:52:28;;;;;;;;;;;;;;;7.77;71.10;103789.00;6211764;23;1303;-96
2022/03/19 16:54:57;;;;;;;;;;;;;;;7.79;71.15;103788.88;6234515;23;981;-96
2022/03/19 16:57:29;;;;;;;;;;;;;;;7.80;71.12;103787.91;6188950;23;1492;-96
2022/03/19 17:00:02;;;;;;;;;;;;;;;7.81;71.30;103789.63;6236325;23;1901;-96
2022/03/19 17:02:29;;;;;;;;;;;;;;;7.81;71.37;103793.16;6211742;23;1152;-96
2022/03/19 17:05:03;;;;;;;;;;;;;;;7.81;71.14;103793.16;6187967;23;1193;-96
2022/03/19 17:07:34;;;;;;;;;;;;;;;7.82;71.19;103786.78;6211057;23;1358;-96
2022/03/19 17:10:07;;;;;;;;;;;;;;;7.83;71.19;103793.03;6236177;23;1279;-96
2022/03/19 17:12:33;;;;;;;;;;;;;;;7.84;71.38;103794.72;6232334;23;1241;-96
2022/03/19 17:15:00;;;;;;;;;;;;;;;7.84;71.42;103798.25;6233864;23;1295;-96
2022/03/19 17:17:31;;;;;;;;;;;;;;;7.86;71.30;103800.84;6232478;23;1258;-96
2022/03/19 17:19:58;;;;;;;;;;;;;;;7.85;71.44;103797.31;6232557;23;1908;-96
2022/03/19 17:22:26;;;;;;;;;;;;;;;7.85;71.46;103799.13;6228716;23;1324;-96
2022/03/19 17:24:53;;;;;;;;;;;;;;;7.85;71.40;103802.69;6232761;23;1189;-96
2022/03/19 17:27:20;;;;;;;;;;;;;;;7.86;71.51;103804.38;6235792;23;1324;-96
2022/03/19 17:29:48;;;;;;;;;;;;;;;7.87;71.41;103805.22;6226712;23;1215;-96
2022/03/19 17:32:14;;;;;;;;;;;;;;;7.86;71.64;103804.38;6226742;23;1364;-96
2022/03/19 17:34:41;;;;;;;;;;;;;;;7.87;71.48;103807.91;6221794;23;1199;-96
2022/03/19 17:37:08;;;;;;;;;;;;;;;7.87;71.43;103808.75;6221686;23;1413;-96
2022/03/19 17:39:34;;;;;;;;;;;;;;;7.86;71.48;103812.44;6224855;23;1905;-96
2022/03/19 17:42:01;;;;;;;;;;;;;;;7.87;71.73;103810.59;6224198;23;1192;-96
2022/03/19 17:44:28;;;;;;;;;;;;;;;7.87;71.60;103813.28;6213560;23;1175;-96
2022/03/19 17:46:54;;;;;;;;;;;;;;;7.87;71.75;103816.81;6216656;23;1348;-96
2022/03/19 17:49:21;;;;;;;;;;;;;;;7.88;71.56;103820.34;6221374;23;1326;-96
2022/03/19 17:51:47;;;;;;;;;;;;;;;7.88;71.47;103829.28;6220111;23;1287;-96
2022/03/19 17:54:14;;;;;;;;;;;;;;;7.88;71.85;103826.59;6217970;23;1314;-96
2022/03/19 17:56:41;;;;;;;;;;;;;;;7.87;71.94;103826.69;6221427;23;1189;-96
2022/03/19 17:59:07;;;;;;;;;;;;;;;7.87;71.68;103830.22;6221494;23;1885;-96
2022/03/19 18:01:34;;;;;;;;;;;;;;;7.87;71.68;103824.00;6220323;23;1203;-96
2022/03/19 18:04:01;;;;;;;;;;;;;;;7.87;71.82;103832.91;6219564;23;1328;-96
2022/03/19 18:06:28;;;;;;;;;;;;;;;7.87;71.85;103835.59;6219729;23;1180;-96
2022/03/19 18:08:54;;;;;;;;;;;;;;;7.87;71.63;103832.91;6222558;23;1303;-96
2022/03/19 18:11:21;;;;;;;;;;;;;;;7.86;72.03;103838.41;6220674;23;1235;-96
2022/03/19 18:13:48;;;;;;;;;;;;;;;7.87;71.87;103838.28;6218779;23;1322;-96
2022/03/19 18:16:14;;;;;;;;;;;;;;;7.86;71.80;103838.41;6216011;23;1261;-96
2022/03/19 18:18:41;;;;;;;;;;;;;;;7.85;71.64;103840.25;6220196;23;1912;-96
2022/03/19 18:21:07;;;;;;;;;;;;;;;7.85;71.60;103834.88;6217577;23;1375;-96
2022/03/19 18:23:34;;;;;;;;;;;;;;;7.85;71.72;103834.00;6218216;23;1232;-96
2022/03/19 18:26:01;;;;;;;;;;;;;;;7.85;71.58;103844.75;6217304;23;1274;-96
2022/03/19 18:28:28;;;;;;;;;;;;;;;7.84;71.70;103845.72;6219112;23;1238;-96
2022/03/19 18:30:54;;;;;;;;;;;;;;;7.84;71.66;103848.41;6216905;23;1216;-96
2022/03/19 18:33:21;;;;;;;;;;;;;;;7.84;71.68;103848.41;6217398;23;1187;-96
2022/03/19 18:35:47;;;;;;;;;;;;;;;7.82;71.91;103848.50;6217564;23;1297;-96
2022/03/19 18:38:14;;;;;;;;;;;;;;;7.82;71.70;103853.88;6219324;23;1324;-96
2022/03/19 18:40:42;;;;;;;;;;;;;;;7.81;71.80;103852.19;6218971;23;1885;-96
2022/03/19 18:43:10;;;;;;;;;;;;;;;7.81;71.86;103854.00;6218222;23;1237;-96
2022/03/19 18:45:36;;;;;;;;;;;;;;;7.81;71.78;103851.34;6218601;23;1261;-96
2022/03/19 18:48:03;;;;;;;;;;;;;;;7.80;71.99;103845.13;6221973;23;1311;-96
2022/03/19 18:50:30;;;;;;;;;;;;;;;7.78;71.91;103847.06;6218539;23;1163;-96
2022/03/19 18:52:57;;;;;;;;;;;;;;;7.79;71.52;103847.91;6218912;23;1410;-96
2022/03/19 18:55:24;;;;;;;;;;;;;;;7.80;71.69;103846.94;6217510;23;1300;-96
2022/03/19 18:57:51;;;;;;;;;;;;;;;7.79;71.74;103847.91;6217335;23;1355;-96
2022/03/19 19:00:18;;;;;;;;;;;;;;;7.77;71.75;103850.72;6219230;23;1920;-96
2022/03/19 19:02:50;;;;;;;;;;;;;;;7.76;71.71;103850.84;6222953;23;1335;-96
2022/03/19 19:08:00;;;;;;;;;;;;;;;7.74;71.77;103848.28;6232761;23;1231;-96
2022/03/19 19:10:27;;;;;;;;;;;;;;;7.75;71.89;103849.97;6232919;23;1310;-96
2022/03/19 19:12:56;;;;;;;;;;;;;;;7.73;71.71;103843.88;6230951;23;1261;-96
2022/03/19 19:18:04;;;;;;;;;;;;;;;7.71;71.79;103844.00;6232975;23;1490;-96
2022/03/19 19:20:31;;;;;;;;;;;;;;;7.70;71.98;103844.97;6223750;23;1928;-96
2022/03/19 19:22:58;;;;;;;;;;;;;;;7.70;71.60;103854.84;6230594;23;1401;-96
2022/03/19 19:25:25;;;;;;;;;;;;;;;7.70;71.69;103852.16;6221247;23;1402;-96
2022/03/19 19:27:52;;;;;;;;;;;;;;;7.68;71.86;103848.78;6221815;23;846;-96
2022/03/19 19:30:19;;;;;;;;;;;;;;;7.68;71.67;103865.72;6219253;23;1179;-96
2022/03/19 19:32:45;;;;;;;;;;;;;;;7.66;71.73;103862.28;6217603;23;1330;-96
2022/03/19 19:35:12;;;;;;;;;;;;;;;7.66;71.68;103864.97;6217695;23;1310;-96
2022/03/19 19:37:38;;;;;;;;;;;;;;;7.65;71.77;103857.91;6218294;23;1191;-96
2022/03/19 19:40:05;;;;;;;;;;;;;;;7.64;71.58;103858.88;6219970;23;1874;-96
2022/03/19 19:42:31;;;;;;;;;;;;;;;7.64;71.59;103863.38;6216925;23;1231;-96
2022/03/19 19:44:58;;;;;;;;;;;;;;;7.63;71.56;103859.84;6216723;23;1468;-96
2022/03/19 19:47:25;;;;;;;;;;;;;;;7.62;71.44;103860.00;6214139;23;1279;-96
2022/03/19 19:49:51;;;;;;;;;;;;;;;7.62;71.71;103858.16;6215739;23;1231;-95
2022/03/19 19:52:18;;;;;;;;;;;;;;;7.60;71.49;103854.72;6216966;23;1295;-96
2022/03/19 19:54:45;;;;;;;;;;;;;;;7.59;71.48;103855.72;6216468;23;1243;-95
2022/03/19 19:59:56;;;;;;;;;;;;;;;7.58;71.55;103847.78;6217005;23;1893;-95
2022/03/19 20:02:23;;;;;;;;;;;;;;;7.56;71.82;103849.69;6215855;23;1286;-95
2022/03/19 20:04:51;;;;;;;;;;;;;;;7.56;71.56;103858.63;6216681;23;1258;-96
2022/03/19 20:10:04;;;;;;;;;;;;;;;7.54;71.46;103851.69;6192195;23;1634;-96
2022/03/19 20:12:31;;;;;;;;;;;;;;;7.53;71.51;103849.94;6214496;23;1311;-95
2022/03/19 20:14:57;;;;;;;;;;;;;;;7.51;71.52;103853.63;6213214;23;1331;-95
2022/03/19 20:17:24;;;;;;;;;;;;;;;7.51;71.42;103852.75;6215938;23;1186;-95
2022/03/19 20:19:54;;;;;;;;;;;;;;;7.50;71.37;103861.78;6215605;23;1953;-94
2022/03/19 20:22:21;;;;;;;;;;;;;;;7.47;71.39;103857.53;6215647;23;1191;-95
2022/03/19 20:24:47;;;;;;;;;;;;;;;7.47;71.64;103862.88;6216433;23;1196;-96
2022/03/19 20:27:14;;;;;;;;;;;;;;;7.46;71.69;103857.63;6217463;23;1444;-95
2022/03/19 20:29:41;;;;;;;;;;;;;;;7.45;71.57;103858.59;6223458;23;818;-95
2022/03/19 20:32:09;;;;;;;;;;;;;;;7.42;71.46;103848.97;6215829;23;1204;-95
2022/03/19 20:34:35;;;;;;;;;;;;;;;7.42;71.56;103859.69;6216596;23;1361;-95
2022/03/19 20:37:02;;;;;;;;;;;;;;;7.41;71.59;103855.31;6216551;23;1341;-96
2022/03/19 20:39:28;;;;;;;;;;;;;;;7.40;71.47;103848.22;6218391;23;1970;-95
2022/03/19 20:41:55;;;;;;;;;;;;;;;7.39;71.28;103854.56;6218874;23;1291;-95
2022/03/19 20:44:21;;;;;;;;;;;;;;;7.38;71.35;103852.00;6218810;23;1221;-96
2022/03/19 20:46:48;;;;;;;;;;;;;;;7.36;71.41;103851.28;6217906;23;1346;-96
2022/03/19 20:51:55;;;;;;;;;;;;;;;7.33;71.28;103847.00;6217130;23;1313;-95
2022/03/19 20:54:22;;;;;;;;;;;;;;;7.34;71.66;103847.84;6218114;23;1360;-95
2022/03/19 20:56:49;;;;;;;;;;;;;;;7.32;71.58;103845.28;6218347;23;1415;-96
2022/03/19 20:59:16;;;;;;;;;;;;;;;7.29;71.49;103848.19;6218134;23;1942;-95
2022/03/19 21:01:43;;;;;;;;;;;;;;;7.28;71.41;103841.97;6218059;23;1240;-96
2022/03/19 21:04:09;;;;;;;;;;;;;;;7.28;71.32;103841.13;6217472;23;1178;-96
2022/03/19 21:06:36;;;;;;;;;;;;;;;7.26;71.64;103843.94;6216578;23;1167;-95
2022/03/19 21:09:03;;;;;;;;;;;;;;;7.26;71.45;103845.75;6219633;23;1156;-96
2022/03/19 21:14:16;;;;;;;;;;;;;;;7.24;71.54;103842.34;6218944;23;1199;-96
2022/03/19 21:16:44;;;;;;;;;;;;;;;7.22;71.59;103834.41;6216706;23;1372;-96
2022/03/19 21:19:11;;;;;;;;;;;;;;;7.21;71.24;103832.72;6218591;23;1948;-96
2022/03/19 21:21:38;;;;;;;;;;;;;;;7.19;71.28;103829.28;6218278;23;1317;-96
2022/03/19 21:24:05;;;;;;;;;;;;;;;7.19;71.53;103826.59;6217198;23;1255;-96
2022/03/19 21:26:31;;;;;;;;;;;;;;;7.19;71.29;103823.91;6217836;23;1183;-96
2022/03/19 21:28:58;;;;;;;;;;;;;;;7.18;71.37;103827.59;6218602;23;1183;-96
2022/03/19 21:31:24;;;;;;;;;;;;;;;7.17;71.41;103815.13;6217225;23;1099;-96
2022/03/19 21:33:51;;;;;;;;;;;;;;;7.16;71.00;103812.59;6218551;23;1226;-96
2022/03/19 21:36:19;;;;;;;;;;;;;;;7.14;71.22;103807.31;6218508;23;1275;-96
2022/03/19 21:40:48;;;;;;;;;;;;;;;7.14;71.30;103819.88;6219012;23;1306;-96
2022/03/19 21:41:31;;;;;;;;;;;;;;;7.13;71.05;103815.50;6218403;23;1186;-96
2022/03/19 21:43:58;;;;;;;;;;;;;;;7.11;71.27;103806.72;6219291;23;1166;-96
2022/03/19 21:46:24;;;;;;;;;;;;;;;7.11;70.93;103817.44;6215753;23;1273;-94
2022/03/19 21:48:51;;;;;;;;;;;;;;;7.09;71.04;103811.31;6217131;23;1147;-96
2022/03/19 21:51:18;;;;;;;;;;;;;;;7.08;71.17;103809.63;6217706;23;1230;-94
2022/03/19 21:53:47;;;;;;;;;;;;;;;7.07;71.18;103810.59;6218909;23;1224;-94
2022/03/19 21:56:13;;;;;;;;;;;;;;;7.03;71.00;103800.13;6216918;23;1376;-95
2022/03/19 21:58:41;;;;;;;;;;;;;;;7.02;71.24;103790.34;6218645;23;1164;-96
2022/03/19 22:01:08;;;;;;;;;;;;;;;7.01;71.12;103794.03;6217249;23;1938;-96
2022/03/19 22:03:35;;;;;;;;;;;;;;;7.01;71.06;103798.53;6217595;23;1318;-96
2022/03/19 22:06:01;;;;;;;;;;;;;;;6.99;71.13;103798.63;6217571;23;1121;-96
2022/03/19 22:08:28;;;;;;;;;;;;;;;6.98;71.01;103802.28;6218325;23;1167;-94
2022/03/19 22:10:56;;;;;;;;;;;;;;;6.97;70.91;103800.59;6217451;23;1266;-96
2022/03/19 22:13:22;;;;;;;;;;;;;;;6.96;70.80;103798.03;6217408;23;1211;-96
2022/03/19 22:15:49;;;;;;;;;;;;;;;6.95;71.00;103797.16;6217608;23;1180;-96
2022/03/19 22:18:15;;;;;;;;;;;;;;;6.92;71.01;103786.69;6216357;23;1284;-95
2022/03/19 22:20:42;;;;;;;;;;;;;;;6.92;71.00;103794.72;6217196;23;1934;-96
2022/03/19 22:23:09;;;;;;;;;;;;;;;6.90;71.05;103787.78;6217734;23;1243;-95
2022/03/19 22:25:35;;;;;;;;;;;;;;;6.89;70.73;103786.91;6217769;23;1395;-95
2022/03/19 22:28:02;;;;;;;;;;;;;;;6.89;71.06;103802.16;6217980;23;1349;-96
2022/03/19 22:30:28;;;;;;;;;;;;;;;6.88;70.73;103801.28;6217682;23;1328;-95
2022/03/19 22:32:55;;;;;;;;;;;;;;;6.85;71.05;103798.81;6217704;23;1271;-95
2022/03/19 22:35:21;;;;;;;;;;;;;;;6.84;70.73;103799.81;6217953;23;1187;-95
2022/03/19 22:37:48;;;;;;;;;;;;;;;6.82;70.95;103801.72;6217303;23;1290;-95
2022/03/19 22:40:14;;;;;;;;;;;;;;;6.81;70.58;103794.69;6217773;23;1946;-96
2022/03/19 22:42:41;;;;;;;;;;;;;;;6.80;70.85;103790.31;6214542;23;1252;-95
2022/03/19 22:45:07;;;;;;;;;;;;;;;6.79;70.80;103791.25;6216627;23;1318;-96
2022/03/19 22:47:34;;;;;;;;;;;;;;;6.76;70.55;103788.81;6217027;23;1325;-95
2022/03/19 22:50:01;;;;;;;;;;;;;;;6.76;70.87;103795.00;6217178;23;1199;-95
2022/03/19 22:52:28;;;;;;;;;;;;;;;6.74;70.69;103790.78;6218633;23;954;-95
2022/03/19 22:54:55;;;;;;;;;;;;;;;6.73;70.60;103797.06;6216816;23;1374;-94
2022/03/19 22:57:22;;;;;;;;;;;;;;;6.71;70.55;103801.72;6216760;23;1236;-95
2022/03/19 22:59:48;;;;;;;;;;;;;;;6.69;70.48;103796.47;6216780;23;1901;-95
2022/03/19 23:02:15;;;;;;;;;;;;;;;6.68;70.71;103794.75;6216866;23;1155;-96
2022/03/19 23:04:42;;;;;;;;;;;;;;;6.68;70.37;103797.44;6216941;23;1448;-95
2022/03/19 23:07:09;;;;;;;;;;;;;;;6.67;70.67;103801.06;6216847;23;1179;-95
2022/03/19 23:09:36;;;;;;;;;;;;;;;6.65;70.46;103800.34;6215460;23;1274;-95
2022/03/19 23:12:03;;;;;;;;;;;;;;;6.64;70.77;103795.94;6217034;23;1259;-95
2022/03/19 23:14:30;;;;;;;;;;;;;;;6.62;70.72;103795.22;6217497;23;1188;-95
2022/03/19 23:16:57;;;;;;;;;;;;;;;6.60;70.38;103806.03;6216833;23;1512;-95
2022/03/19 23:19:24;;;;;;;;;;;;;;;6.58;70.44;103794.56;6217214;23;1181;-95
2022/03/19 23:21:50;;;;;;;;;;;;;;;6.59;70.67;103792.78;6216839;23;1954;-95
2022/03/19 23:24:19;;;;;;;;;;;;;;;6.56;70.74;103785.81;6217009;23;1274;-95
2022/03/19 23:26:45;;;;;;;;;;;;;;;6.55;70.72;103791.28;6216974;23;1254;-95
2022/03/19 23:29:12;;;;;;;;;;;;;;;6.55;70.29;103792.13;6217247;23;1379;-96
2022/03/19 23:31:38;;;;;;;;;;;;;;;6.54;70.34;103786.91;6217077;23;1266;-95
2022/03/19 23:34:05;;;;;;;;;;;;;;;6.52;70.24;103781.63;6217115;23;1280;-95
2022/03/19 23:36:32;;;;;;;;;;;;;;;6.50;70.49;103778.25;6216867;23;1176;-95
2022/03/19 23:38:59;;;;;;;;;;;;;;;6.49;70.55;103784.53;6217438;23;1159;-95
2022/03/19 23:41:28;;;;;;;;;;;;;;;6.48;70.54;103785.53;6216641;23;1905;-95
2022/03/19 23:43:55;;;;;;;;;;;;;;;6.47;70.20;103782.94;6217113;23;1237;-95
2022/03/19 23:46:21;;;;;;;;;;;;;;;6.44;70.42;103778.72;6216871;23;1187;-95
2022/03/19 23:48:48;;;;;;;;;;;;;;;6.44;70.28;103776.03;6218489;23;973;-95
2022/03/19 23:51:15;;;;;;;;;;;;;;;6.42;70.12;103777.94;6216749;23;1115;-95
2022/03/19 23:53:41;;;;;;;;;;;;;;;6.42;70.21;103783.31;6216462;23;1357;-94
2022/03/19 23:56:08;;;;;;;;;;;;;;;6.42;70.10;103783.31;6216585;23;1354;-96
2022/03/19 23:58:34;;;;;;;;;;;;;;;6.40;70.20;103781.72;6217271;23;1294;-96
